Portada
METAR-TAF:

METAR-TAF

Aeroports :

Nouakchott, Mauritània

latitud: 18-18-36N, longitud: 015-58-11W, altitud: 3 m

Observació

L'informe es va fer fa 1 hora i 8 minuts, a les 08:00 UTC
Vent 11 kt del Nord
Temperatura 28°C
Humitat 55%
Pressió 1013 hPa
Visibilitat 10 km o més
sense núvols per sota de 1500 mi sense presència de cumulonimbus.

METAR: GQNO 060800Z 36011KT CAVOK 28/18 Q1013 NOSIG

Hora: 09:08 (09:08 UTC)

Pronòstic

L'informe es va fer fa 4 hores i 8 minuts, a les 05:00 UTC
Pronòstic vàlid del 06 a les 06 UTC al 07 a les 12 UTC
Vent 15 kt del Nord/Nord-Oest
Visibilitat: 8000 m
Probabilitat 40% :
Temporalment
l' 06 a les 12 UTC al 06 a les 18 UTC
Visibilitat: 2500 m
torb alta de sora

TAF: GQNO 060500Z 0606/0712 34015KT 8000 NSC PROB40 TEMPO 0612/0618 2500 BLSA

Observacions i pronòstics meteorològics de més de 4000 aeroports (METAR i TAF).

Les estacions disponibles són els punts grocs i vermells al mapa.

Posi el ratolí al punt desitjat per veure el nom de l'estació.

Feu clic per veure les observacions i els pronòstics meteorològics.

Per canviar el mapa: feu clic els botons verds amb una creu de color negre per apropar; al botó verd amb un guió per allunyar la imatge; o en les fletxes verdes per a mapes adjacents.


METAR-TAF: